sensor_id;sensor_type;location;lat;lon;timestamp;P1;durP1;ratioP1;P2;durP2;ratioP2
68923;SDS011;55961;52.156;20.942;2023-05-07T00:01:56;6.05;;;2.95;;
68923;SDS011;55961;52.156;20.942;2023-05-07T00:04:22;5.47;;;1.85;;
68923;SDS011;55961;52.156;20.942;2023-05-07T00:06:48;7.53;;;2.40;;
68923;SDS011;55961;52.156;20.942;2023-05-07T00:09:14;5.97;;;2.35;;
68923;SDS011;55961;52.156;20.942;2023-05-07T00:11:40;6.53;;;2.58;;
68923;SDS011;55961;52.156;20.942;2023-05-07T00:14:06;7.20;;;2.40;;
68923;SDS011;55961;52.156;20.942;2023-05-07T00:16:32;6.80;;;2.83;;
68923;SDS011;55961;52.156;20.942;2023-05-07T00:18:57;7.10;;;2.63;;
68923;SDS011;55961;52.156;20.942;2023-05-07T00:21:24;7.17;;;2.80;;
68923;SDS011;55961;52.156;20.942;2023-05-07T00:23:52;5.53;;;2.10;;
68923;SDS011;55961;52.156;20.942;2023-05-07T00:26:18;5.75;;;2.17;;
68923;SDS011;55961;52.156;20.942;2023-05-07T00:28:44;6.60;;;2.83;;
68923;SDS011;55961;52.156;20.942;2023-05-07T00:31:10;6.70;;;2.50;;
68923;SDS011;55961;52.156;20.942;2023-05-07T00:33:37;6.30;;;2.33;;
68923;SDS011;55961;52.156;20.942;2023-05-07T00:36:04;6.10;;;2.58;;
68923;SDS011;55961;52.156;20.942;2023-05-07T00:38:30;7.30;;;2.70;;
68923;SDS011;55961;52.156;20.942;2023-05-07T00:40:56;6.60;;;2.63;;
68923;SDS011;55961;52.156;20.942;2023-05-07T00:43:21;5.43;;;2.47;;
68923;SDS011;55961;52.156;20.942;2023-05-07T00:45:48;6.07;;;2.47;;
68923;SDS011;55961;52.156;20.942;2023-05-07T00:48:14;6.85;;;2.65;;
68923;SDS011;55961;52.156;20.942;2023-05-07T00:50:40;8.93;;;3.03;;
68923;SDS011;55961;52.156;20.942;2023-05-07T00:53:06;8.35;;;2.72;;
68923;SDS011;55961;52.156;20.942;2023-05-07T00:55:32;5.22;;;2.38;;
68923;SDS011;55961;52.156;20.942;2023-05-07T00:57:58;7.35;;;2.95;;
68923;SDS011;55961;52.156;20.942;2023-05-07T01:00:25;8.60;;;3.10;;
68923;SDS011;55961;52.156;20.942;2023-05-07T01:02:50;7.75;;;2.53;;
68923;SDS011;55961;52.156;20.942;2023-05-07T01:05:17;6.25;;;2.80;;
68923;SDS011;55961;52.156;20.942;2023-05-07T01:07:45;6.32;;;2.63;;
68923;SDS011;55961;52.156;20.942;2023-05-07T01:10:12;6.30;;;2.53;;
68923;SDS011;55961;52.156;20.942;2023-05-07T01:12:39;6.15;;;2.30;;
68923;SDS011;55961;52.156;20.942;2023-05-07T01:15:07;6.65;;;2.90;;
68923;SDS011;55961;52.156;20.942;2023-05-07T01:17:34;8.93;;;2.58;;
68923;SDS011;55961;52.156;20.942;2023-05-07T01:20:01;6.60;;;2.17;;
68923;SDS011;55961;52.156;20.942;2023-05-07T01:22:35;7.60;;;2.47;;
68923;SDS011;55961;52.156;20.942;2023-05-07T01:25:04;5.57;;;2.20;;
68923;SDS011;55961;52.156;20.942;2023-05-07T01:27:31;5.82;;;2.28;;
68923;SDS011;55961;52.156;20.942;2023-05-07T01:29:59;6.75;;;2.30;;
68923;SDS011;55961;52.156;20.942;2023-05-07T01:32:29;5.45;;;2.03;;
68923;SDS011;55961;52.156;20.942;2023-05-07T01:35:01;4.93;;;1.83;;
68923;SDS011;55961;52.156;20.942;2023-05-07T01:37:30;5.22;;;2.05;;
68923;SDS011;55961;52.156;20.942;2023-05-07T01:39:57;5.68;;;2.25;;
68923;SDS011;55961;52.156;20.942;2023-05-07T01:42:23;6.82;;;2.00;;
68923;SDS011;55961;52.156;20.942;2023-05-07T01:44:49;5.47;;;2.22;;
68923;SDS011;55961;52.156;20.942;2023-05-07T01:47:15;5.67;;;2.07;;
68923;SDS011;55961;52.156;20.942;2023-05-07T01:49:42;5.03;;;2.03;;
68923;SDS011;55961;52.156;20.942;2023-05-07T01:52:09;5.18;;;2.13;;
68923;SDS011;55961;52.156;20.942;2023-05-07T01:54:36;5.67;;;1.67;;
68923;SDS011;55961;52.156;20.942;2023-05-07T01:57:02;5.07;;;1.83;;
68923;SDS011;55961;52.156;20.942;2023-05-07T01:59:28;6.28;;;1.65;;
68923;SDS011;55961;52.156;20.942;2023-05-07T02:01:54;4.93;;;2.20;;
68923;SDS011;55961;52.156;20.942;2023-05-07T02:04:20;6.07;;;2.10;;
68923;SDS011;55961;52.156;20.942;2023-05-07T02:06:46;5.03;;;1.92;;
68923;SDS011;55961;52.156;20.942;2023-05-07T02:09:13;4.95;;;1.75;;
68923;SDS011;55961;52.156;20.942;2023-05-07T02:11:39;4.70;;;1.80;;
68923;SDS011;55961;52.156;20.942;2023-05-07T02:14:06;5.50;;;1.80;;
68923;SDS011;55961;52.156;20.942;2023-05-07T02:16:31;6.35;;;2.33;;
68923;SDS011;55961;52.156;20.942;2023-05-07T02:18:57;5.40;;;1.95;;
68923;SDS011;55961;52.156;20.942;2023-05-07T02:21:23;4.27;;;1.37;;
68923;SDS011;55961;52.156;20.942;2023-05-07T02:23:50;5.28;;;2.10;;
68923;SDS011;55961;52.156;20.942;2023-05-07T02:26:16;8.23;;;2.28;;
68923;SDS011;55961;52.156;20.942;2023-05-07T02:28:43;5.97;;;1.77;;
68923;SDS011;55961;52.156;20.942;2023-05-07T02:31:09;4.00;;;1.65;;
68923;SDS011;55961;52.156;20.942;2023-05-07T02:33:35;4.90;;;1.95;;
68923;SDS011;55961;52.156;20.942;2023-05-07T02:36:05;5.30;;;1.70;;
68923;SDS011;55961;52.156;20.942;2023-05-07T02:38:35;4.83;;;1.90;;
68923;SDS011;55961;52.156;20.942;2023-05-07T02:41:01;7.32;;;2.15;;
68923;SDS011;55961;52.156;20.942;2023-05-07T02:43:27;5.43;;;1.92;;
68923;SDS011;55961;52.156;20.942;2023-05-07T02:46:03;5.05;;;1.92;;
68923;SDS011;55961;52.156;20.942;2023-05-07T02:48:30;6.00;;;1.80;;
68923;SDS011;55961;52.156;20.942;2023-05-07T02:50:56;5.97;;;1.40;;
68923;SDS011;55961;52.156;20.942;2023-05-07T02:53:23;5.63;;;2.40;;
68923;SDS011;55961;52.156;20.942;2023-05-07T02:55:51;5.32;;;1.60;;
68923;SDS011;55961;52.156;20.942;2023-05-07T02:58:19;4.57;;;1.90;;
68923;SDS011;55961;52.156;20.942;2023-05-07T03:00:45;5.87;;;2.00;;
68923;SDS011;55961;52.156;20.942;2023-05-07T03:03:11;5.45;;;2.28;;
68923;SDS011;55961;52.156;20.942;2023-05-07T03:05:37;6.68;;;2.17;;
68923;SDS011;55961;52.156;20.942;2023-05-07T03:08:03;4.80;;;1.88;;
68923;SDS011;55961;52.156;20.942;2023-05-07T03:10:29;5.63;;;2.03;;
68923;SDS011;55961;52.156;20.942;2023-05-07T03:12:56;7.13;;;2.10;;
68923;SDS011;55961;52.156;20.942;2023-05-07T03:15:21;5.57;;;2.13;;
68923;SDS011;55961;52.156;20.942;2023-05-07T03:17:48;4.63;;;1.95;;
68923;SDS011;55961;52.156;20.942;2023-05-07T03:20:14;6.75;;;2.03;;
68923;SDS011;55961;52.156;20.942;2023-05-07T03:22:40;6.23;;;1.80;;
68923;SDS011;55961;52.156;20.942;2023-05-07T03:25:06;3.85;;;1.58;;
68923;SDS011;55961;52.156;20.942;2023-05-07T03:27:33;6.18;;;1.70;;
68923;SDS011;55961;52.156;20.942;2023-05-07T03:29:59;5.80;;;1.50;;
68923;SDS011;55961;52.156;20.942;2023-05-07T03:32:25;5.35;;;1.48;;
68923;SDS011;55961;52.156;20.942;2023-05-07T03:34:51;4.00;;;1.50;;
68923;SDS011;55961;52.156;20.942;2023-05-07T03:37:17;5.03;;;1.60;;
68923;SDS011;55961;52.156;20.942;2023-05-07T03:39:43;5.25;;;1.90;;
68923;SDS011;55961;52.156;20.942;2023-05-07T03:42:09;4.88;;;1.70;;
68923;SDS011;55961;52.156;20.942;2023-05-07T03:44:35;5.13;;;2.10;;
68923;SDS011;55961;52.156;20.942;2023-05-07T03:47:04;7.38;;;2.17;;
68923;SDS011;55961;52.156;20.942;2023-05-07T03:49:30;7.70;;;2.20;;
68923;SDS011;55961;52.156;20.942;2023-05-07T03:51:56;5.88;;;1.60;;
68923;SDS011;55961;52.156;20.942;2023-05-07T03:54:22;5.05;;;1.92;;
68923;SDS011;55961;52.156;20.942;2023-05-07T03:56:48;5.82;;;1.90;;
68923;SDS011;55961;52.156;20.942;2023-05-07T03:59:13;4.87;;;1.83;;
68923;SDS011;55961;52.156;20.942;2023-05-07T04:01:39;5.00;;;1.35;;
68923;SDS011;55961;52.156;20.942;2023-05-07T04:04:05;4.32;;;1.48;;
68923;SDS011;55961;52.156;20.942;2023-05-07T04:06:31;4.00;;;1.70;;
68923;SDS011;55961;52.156;20.942;2023-05-07T04:08:57;5.00;;;1.83;;
68923;SDS011;55961;52.156;20.942;2023-05-07T04:11:23;6.22;;;2.05;;
68923;SDS011;55961;52.156;20.942;2023-05-07T04:13:50;5.63;;;1.98;;
68923;SDS011;55961;52.156;20.942;2023-05-07T04:16:16;5.78;;;1.80;;
68923;SDS011;55961;52.156;20.942;2023-05-07T04:18:41;5.57;;;1.60;;
68923;SDS011;55961;52.156;20.942;2023-05-07T04:21:14;4.90;;;1.88;;
68923;SDS011;55961;52.156;20.942;2023-05-07T04:23:45;4.10;;;1.42;;
68923;SDS011;55961;52.156;20.942;2023-05-07T04:26:12;4.57;;;1.45;;
68923;SDS011;55961;52.156;20.942;2023-05-07T04:28:38;5.63;;;2.10;;
68923;SDS011;55961;52.156;20.942;2023-05-07T04:31:05;5.15;;;2.20;;
68923;SDS011;55961;52.156;20.942;2023-05-07T04:33:31;4.85;;;1.35;;
68923;SDS011;55961;52.156;20.942;2023-05-07T04:35:58;8.32;;;2.17;;
68923;SDS011;55961;52.156;20.942;2023-05-07T04:38:28;6.65;;;2.15;;
68923;SDS011;55961;52.156;20.942;2023-05-07T04:40:56;4.73;;;1.70;;
68923;SDS011;55961;52.156;20.942;2023-05-07T04:43:22;3.90;;;1.60;;
68923;SDS011;55961;52.156;20.942;2023-05-07T04:45:53;4.80;;;1.70;;
68923;SDS011;55961;52.156;20.942;2023-05-07T04:48:19;5.07;;;1.88;;
68923;SDS011;55961;52.156;20.942;2023-05-07T04:50:49;5.03;;;1.70;;
68923;SDS011;55961;52.156;20.942;2023-05-07T04:53:16;5.20;;;1.90;;
68923;SDS011;55961;52.156;20.942;2023-05-07T04:55:43;5.00;;;2.03;;
68923;SDS011;55961;52.156;20.942;2023-05-07T04:58:10;4.47;;;1.83;;
68923;SDS011;55961;52.156;20.942;2023-05-07T05:00:36;6.18;;;1.95;;
68923;SDS011;55961;52.156;20.942;2023-05-07T05:03:02;5.67;;;2.00;;
68923;SDS011;55961;52.156;20.942;2023-05-07T05:05:28;4.60;;;1.60;;
68923;SDS011;55961;52.156;20.942;2023-05-07T05:07:54;5.75;;;1.98;;
68923;SDS011;55961;52.156;20.942;2023-05-07T05:10:21;4.43;;;1.37;;
68923;SDS011;55961;52.156;20.942;2023-05-07T05:12:47;5.25;;;1.80;;
68923;SDS011;55961;52.156;20.942;2023-05-07T05:15:13;5.00;;;1.50;;
68923;SDS011;55961;52.156;20.942;2023-05-07T05:17:39;4.57;;;1.77;;
68923;SDS011;55961;52.156;20.942;2023-05-07T05:20:05;4.67;;;1.57;;
68923;SDS011;55961;52.156;20.942;2023-05-07T05:22:32;4.60;;;1.90;;
68923;SDS011;55961;52.156;20.942;2023-05-07T05:24:58;3.75;;;1.40;;
68923;SDS011;55961;52.156;20.942;2023-05-07T05:27:24;4.47;;;1.50;;
68923;SDS011;55961;52.156;20.942;2023-05-07T05:29:50;4.73;;;1.50;;
68923;SDS011;55961;52.156;20.942;2023-05-07T05:32:16;5.13;;;1.42;;
68923;SDS011;55961;52.156;20.942;2023-05-07T05:34:42;3.85;;;1.38;;
68923;SDS011;55961;52.156;20.942;2023-05-07T05:37:08;5.07;;;1.50;;
68923;SDS011;55961;52.156;20.942;2023-05-07T05:39:34;3.10;;;1.10;;
68923;SDS011;55961;52.156;20.942;2023-05-07T05:41:59;5.43;;;1.60;;
68923;SDS011;55961;52.156;20.942;2023-05-07T05:44:25;4.90;;;1.33;;
68923;SDS011;55961;52.156;20.942;2023-05-07T05:46:51;3.77;;;1.27;;
68923;SDS011;55961;52.156;20.942;2023-05-07T05:49:20;4.65;;;1.52;;
68923;SDS011;55961;52.156;20.942;2023-05-07T05:51:46;4.45;;;0.98;;
68923;SDS011;55961;52.156;20.942;2023-05-07T05:54:12;5.18;;;1.30;;
68923;SDS011;55961;52.156;20.942;2023-05-07T05:56:38;5.60;;;1.77;;
68923;SDS011;55961;52.156;20.942;2023-05-07T05:59:04;6.07;;;2.03;;
68923;SDS011;55961;52.156;20.942;2023-05-07T06:01:29;5.03;;;1.40;;
68923;SDS011;55961;52.156;20.942;2023-05-07T06:03:56;3.92;;;1.13;;
68923;SDS011;55961;52.156;20.942;2023-05-07T06:06:21;4.20;;;1.37;;
68923;SDS011;55961;52.156;20.942;2023-05-07T06:08:48;3.42;;;0.93;;
68923;SDS011;55961;52.156;20.942;2023-05-07T06:11:13;4.05;;;1.45;;
68923;SDS011;55961;52.156;20.942;2023-05-07T06:13:40;3.60;;;0.90;;
68923;SDS011;55961;52.156;20.942;2023-05-07T06:16:06;4.57;;;1.30;;
68923;SDS011;55961;52.156;20.942;2023-05-07T06:18:32;3.80;;;1.58;;
68923;SDS011;55961;52.156;20.942;2023-05-07T06:20:58;4.03;;;1.30;;
68923;SDS011;55961;52.156;20.942;2023-05-07T06:23:24;3.88;;;1.35;;
68923;SDS011;55961;52.156;20.942;2023-05-07T06:25:50;4.63;;;1.70;;
68923;SDS011;55961;52.156;20.942;2023-05-07T06:28:16;4.10;;;1.70;;
68923;SDS011;55961;52.156;20.942;2023-05-07T06:30:42;2.63;;;0.63;;
68923;SDS011;55961;52.156;20.942;2023-05-07T06:33:08;3.15;;;0.98;;
68923;SDS011;55961;52.156;20.942;2023-05-07T06:35:34;2.72;;;0.95;;
68923;SDS011;55961;52.156;20.942;2023-05-07T06:38:00;3.85;;;1.02;;
68923;SDS011;55961;52.156;20.942;2023-05-07T06:40:26;3.83;;;1.00;;
68923;SDS011;55961;52.156;20.942;2023-05-07T06:42:53;3.10;;;1.00;;
68923;SDS011;55961;52.156;20.942;2023-05-07T06:45:19;3.35;;;1.10;;
68923;SDS011;55961;52.156;20.942;2023-05-07T06:47:45;4.28;;;1.30;;
68923;SDS011;55961;52.156;20.942;2023-05-07T06:50:11;3.37;;;1.03;;
68923;SDS011;55961;52.156;20.942;2023-05-07T06:52:37;5.35;;;1.15;;
68923;SDS011;55961;52.156;20.942;2023-05-07T06:55:03;5.53;;;0.90;;
68923;SDS011;55961;52.156;20.942;2023-05-07T06:57:30;3.87;;;0.90;;
68923;SDS011;55961;52.156;20.942;2023-05-07T06:59:56;5.85;;;1.30;;
68923;SDS011;55961;52.156;20.942;2023-05-07T07:02:22;6.57;;;1.40;;
68923;SDS011;55961;52.156;20.942;2023-05-07T07:04:47;3.73;;;1.10;;
68923;SDS011;55961;52.156;20.942;2023-05-07T07:07:14;3.17;;;1.07;;
68923;SDS011;55961;52.156;20.942;2023-05-07T07:09:39;3.65;;;1.45;;
68923;SDS011;55961;52.156;20.942;2023-05-07T07:12:05;3.40;;;1.10;;
68923;SDS011;55961;52.156;20.942;2023-05-07T07:14:31;3.97;;;1.00;;
68923;SDS011;55961;52.156;20.942;2023-05-07T07:16:57;5.15;;;1.30;;
68923;SDS011;55961;52.156;20.942;2023-05-07T07:19:23;4.40;;;1.63;;
68923;SDS011;55961;52.156;20.942;2023-05-07T07:21:49;2.90;;;1.00;;
68923;SDS011;55961;52.156;20.942;2023-05-07T07:24:15;3.47;;;0.80;;
68923;SDS011;55961;52.156;20.942;2023-05-07T07:26:44;3.15;;;1.17;;
68923;SDS011;55961;52.156;20.942;2023-05-07T07:29:10;3.60;;;1.20;;
68923;SDS011;55961;52.156;20.942;2023-05-07T07:31:36;3.78;;;1.30;;
68923;SDS011;55961;52.156;20.942;2023-05-07T07:34:02;3.95;;;1.50;;
68923;SDS011;55961;52.156;20.942;2023-05-07T07:36:28;3.60;;;1.35;;
68923;SDS011;55961;52.156;20.942;2023-05-07T07:38:54;3.93;;;1.50;;
68923;SDS011;55961;52.156;20.942;2023-05-07T07:41:20;4.18;;;1.25;;
68923;SDS011;55961;52.156;20.942;2023-05-07T07:43:46;3.90;;;1.20;;
68923;SDS011;55961;52.156;20.942;2023-05-07T07:46:12;3.70;;;1.13;;
68923;SDS011;55961;52.156;20.942;2023-05-07T07:48:38;4.40;;;1.50;;
68923;SDS011;55961;52.156;20.942;2023-05-07T07:51:05;3.25;;;1.25;;
68923;SDS011;55961;52.156;20.942;2023-05-07T07:53:31;2.90;;;1.10;;
68923;SDS011;55961;52.156;20.942;2023-05-07T07:55:57;4.75;;;1.20;;
68923;SDS011;55961;52.156;20.942;2023-05-07T07:58:23;4.22;;;1.58;;
68923;SDS011;55961;52.156;20.942;2023-05-07T08:00:50;3.85;;;1.27;;
68923;SDS011;55961;52.156;20.942;2023-05-07T08:03:16;4.40;;;1.37;;
68923;SDS011;55961;52.156;20.942;2023-05-07T08:05:42;4.93;;;1.30;;
68923;SDS011;55961;52.156;20.942;2023-05-07T08:08:08;4.25;;;0.98;;
68923;SDS011;55961;52.156;20.942;2023-05-07T08:10:35;3.08;;;1.10;;
68923;SDS011;55961;52.156;20.942;2023-05-07T08:13:03;3.88;;;1.20;;
68923;SDS011;55961;52.156;20.942;2023-05-07T08:15:30;5.10;;;1.57;;
68923;SDS011;55961;52.156;20.942;2023-05-07T08:17:56;4.45;;;1.20;;
68923;SDS011;55961;52.156;20.942;2023-05-07T08:20:23;4.45;;;1.00;;
68923;SDS011;55961;52.156;20.942;2023-05-07T08:22:49;3.72;;;1.27;;
68923;SDS011;55961;52.156;20.942;2023-05-07T08:25:16;4.45;;;1.65;;
68923;SDS011;55961;52.156;20.942;2023-05-07T08:27:42;3.33;;;1.10;;
68923;SDS011;55961;52.156;20.942;2023-05-07T08:30:09;3.97;;;0.85;;
68923;SDS011;55961;52.156;20.942;2023-05-07T08:32:36;3.20;;;1.00;;
68923;SDS011;55961;52.156;20.942;2023-05-07T08:35:02;4.60;;;1.33;;
68923;SDS011;55961;52.156;20.942;2023-05-07T08:37:27;5.20;;;1.90;;
68923;SDS011;55961;52.156;20.942;2023-05-07T08:39:54;3.53;;;1.35;;
68923;SDS011;55961;52.156;20.942;2023-05-07T08:42:19;4.10;;;1.42;;
68923;SDS011;55961;52.156;20.942;2023-05-07T08:44:48;4.22;;;1.40;;
68923;SDS011;55961;52.156;20.942;2023-05-07T08:47:18;3.73;;;1.30;;
68923;SDS011;55961;52.156;20.942;2023-05-07T08:49:45;3.95;;;1.42;;
68923;SDS011;55961;52.156;20.942;2023-05-07T08:52:12;4.47;;;1.65;;
68923;SDS011;55961;52.156;20.942;2023-05-07T08:54:38;4.82;;;1.05;;
68923;SDS011;55961;52.156;20.942;2023-05-07T08:57:04;4.05;;;1.50;;
68923;SDS011;55961;52.156;20.942;2023-05-07T08:59:30;4.60;;;1.10;;
68923;SDS011;55961;52.156;20.942;2023-05-07T09:01:56;6.03;;;1.23;;
68923;SDS011;55961;52.156;20.942;2023-05-07T09:04:22;4.57;;;1.73;;
68923;SDS011;55961;52.156;20.942;2023-05-07T09:06:48;3.50;;;1.10;;
68923;SDS011;55961;52.156;20.942;2023-05-07T09:09:17;4.40;;;1.17;;
68923;SDS011;55961;52.156;20.942;2023-05-07T09:11:45;3.05;;;1.08;;
68923;SDS011;55961;52.156;20.942;2023-05-07T09:14:11;5.93;;;1.00;;
68923;SDS011;55961;52.156;20.942;2023-05-07T09:16:38;3.22;;;1.10;;
68923;SDS011;55961;52.156;20.942;2023-05-07T09:19:04;3.28;;;1.27;;
68923;SDS011;55961;52.156;20.942;2023-05-07T09:21:30;3.67;;;1.30;;
68923;SDS011;55961;52.156;20.942;2023-05-07T09:23:57;2.60;;;0.80;;
68923;SDS011;55961;52.156;20.942;2023-05-07T09:26:23;4.22;;;1.35;;
68923;SDS011;55961;52.156;20.942;2023-05-07T09:28:50;3.50;;;0.90;;
68923;SDS011;55961;52.156;20.942;2023-05-07T09:31:17;3.38;;;0.90;;
68923;SDS011;55961;52.156;20.942;2023-05-07T09:33:43;4.63;;;1.38;;
68923;SDS011;55961;52.156;20.942;2023-05-07T09:36:09;4.00;;;1.43;;
68923;SDS011;55961;52.156;20.942;2023-05-07T09:38:35;2.83;;;0.73;;
68923;SDS011;55961;52.156;20.942;2023-05-07T09:43:35;3.15;;;0.93;;
68923;SDS011;55961;52.156;20.942;2023-05-07T09:46:03;3.00;;;0.90;;
68923;SDS011;55961;52.156;20.942;2023-05-07T09:48:32;5.20;;;0.90;;
68923;SDS011;55961;52.156;20.942;2023-05-07T09:51:02;3.57;;;1.20;;
68923;SDS011;55961;52.156;20.942;2023-05-07T09:53:36;3.88;;;1.15;;
68923;SDS011;55961;52.156;20.942;2023-05-07T09:56:04;5.53;;;1.40;;
68923;SDS011;55961;52.156;20.942;2023-05-07T09:58:31;3.13;;;1.10;;
68923;SDS011;55961;52.156;20.942;2023-05-07T10:01:01;4.10;;;1.20;;
68923;SDS011;55961;52.156;20.942;2023-05-07T10:03:28;3.40;;;1.20;;
68923;SDS011;55961;52.156;20.942;2023-05-07T10:05:57;4.22;;;1.45;;
68923;SDS011;55961;52.156;20.942;2023-05-07T10:08:24;3.20;;;1.08;;
68923;SDS011;55961;52.156;20.942;2023-05-07T10:10:50;4.40;;;0.95;;
68923;SDS011;55961;52.156;20.942;2023-05-07T10:13:18;3.72;;;1.35;;
68923;SDS011;55961;52.156;20.942;2023-05-07T10:15:44;5.77;;;1.27;;
68923;SDS011;55961;52.156;20.942;2023-05-07T10:18:11;5.07;;;1.15;;
68923;SDS011;55961;52.156;20.942;2023-05-07T10:20:37;4.97;;;1.55;;
68923;SDS011;55961;52.156;20.942;2023-05-07T10:23:05;4.88;;;1.13;;
68923;SDS011;55961;52.156;20.942;2023-05-07T10:25:32;4.07;;;1.30;;
68923;SDS011;55961;52.156;20.942;2023-05-07T10:28:04;11.13;;;1.33;;
68923;SDS011;55961;52.156;20.942;2023-05-07T10:33:27;3.50;;;1.17;;
68923;SDS011;55961;52.156;20.942;2023-05-07T10:35:55;2.60;;;1.00;;
68923;SDS011;55961;52.156;20.942;2023-05-07T10:38:25;2.70;;;1.00;;
68923;SDS011;55961;52.156;20.942;2023-05-07T10:40:52;3.67;;;1.07;;
68923;SDS011;55961;52.156;20.942;2023-05-07T10:43:18;4.50;;;1.73;;
68923;SDS011;55961;52.156;20.942;2023-05-07T10:46:08;5.95;;;1.50;;
68923;SDS011;55961;52.156;20.942;2023-05-07T10:51:28;3.37;;;1.27;;
68923;SDS011;55961;52.156;20.942;2023-05-07T10:56:36;6.75;;;1.00;;
68923;SDS011;55961;52.156;20.942;2023-05-07T11:04:28;3.10;;;1.00;;
68923;SDS011;55961;52.156;20.942;2023-05-07T11:12:17;6.47;;;1.40;;
68923;SDS011;55961;52.156;20.942;2023-05-07T11:15:10;3.63;;;1.20;;
68923;SDS011;55961;52.156;20.942;2023-05-07T11:17:55;4.90;;;1.57;;
68923;SDS011;55961;52.156;20.942;2023-05-07T11:28:36;3.75;;;1.60;;
68923;SDS011;55961;52.156;20.942;2023-05-07T11:31:03;5.27;;;1.53;;
68923;SDS011;55961;52.156;20.942;2023-05-07T11:33:30;3.80;;;0.90;;
68923;SDS011;55961;52.156;20.942;2023-05-07T11:36:00;4.32;;;1.40;;
68923;SDS011;55961;52.156;20.942;2023-05-07T11:38:28;6.35;;;1.65;;
68923;SDS011;55961;52.156;20.942;2023-05-07T11:41:00;4.22;;;1.60;;
68923;SDS011;55961;52.156;20.942;2023-05-07T11:43:27;4.47;;;1.03;;
68923;SDS011;55961;52.156;20.942;2023-05-07T11:45:53;3.47;;;1.13;;
68923;SDS011;55961;52.156;20.942;2023-05-07T11:48:20;4.10;;;1.10;;
68923;SDS011;55961;52.156;20.942;2023-05-07T11:53:17;3.78;;;1.70;;
68923;SDS011;55961;52.156;20.942;2023-05-07T11:55:45;7.20;;;0.70;;
68923;SDS011;55961;52.156;20.942;2023-05-07T11:58:12;2.97;;;1.02;;
68923;SDS011;55961;52.156;20.942;2023-05-07T12:00:52;2.95;;;1.23;;
68923;SDS011;55961;52.156;20.942;2023-05-07T12:03:19;4.20;;;1.00;;
68923;SDS011;55961;52.156;20.942;2023-05-07T12:05:46;4.13;;;1.40;;
68923;SDS011;55961;52.156;20.942;2023-05-07T12:10:47;3.22;;;0.93;;
68923;SDS011;55961;52.156;20.942;2023-05-07T12:13:24;5.18;;;1.40;;
68923;SDS011;55961;52.156;20.942;2023-05-07T12:15:51;4.22;;;1.10;;
68923;SDS011;55961;52.156;20.942;2023-05-07T12:18:18;5.65;;;1.30;;
68923;SDS011;55961;52.156;20.942;2023-05-07T12:20:45;4.97;;;1.57;;
68923;SDS011;55961;52.156;20.942;2023-05-07T12:23:12;3.40;;;1.00;;
68923;SDS011;55961;52.156;20.942;2023-05-07T12:25:39;5.50;;;2.15;;
68923;SDS011;55961;52.156;20.942;2023-05-07T12:28:07;5.07;;;2.10;;
68923;SDS011;55961;52.156;20.942;2023-05-07T12:30:36;2.83;;;1.20;;
68923;SDS011;55961;52.156;20.942;2023-05-07T12:33:03;3.63;;;1.27;;
68923;SDS011;55961;52.156;20.942;2023-05-07T12:35:30;2.83;;;0.82;;
68923;SDS011;55961;52.156;20.942;2023-05-07T12:37:57;4.20;;;1.15;;
68923;SDS011;55961;52.156;20.942;2023-05-07T12:40:35;2.60;;;0.73;;
68923;SDS011;55961;52.156;20.942;2023-05-07T12:45:43;4.67;;;1.40;;
68923;SDS011;55961;52.156;20.942;2023-05-07T12:48:10;3.05;;;0.80;;
68923;SDS011;55961;52.156;20.942;2023-05-07T12:50:36;4.35;;;1.75;;
68923;SDS011;55961;52.156;20.942;2023-05-07T12:53:03;6.45;;;1.38;;
68923;SDS011;55961;52.156;20.942;2023-05-07T12:55:43;4.20;;;0.93;;
68923;SDS011;55961;52.156;20.942;2023-05-07T13:00:49;5.13;;;1.40;;
68923;SDS011;55961;52.156;20.942;2023-05-07T13:03:26;5.03;;;0.80;;
68923;SDS011;55961;52.156;20.942;2023-05-07T13:05:54;4.47;;;0.82;;
68923;SDS011;55961;52.156;20.942;2023-05-07T13:10:59;3.30;;;1.15;;
68923;SDS011;55961;52.156;20.942;2023-05-07T13:13:31;2.33;;;0.70;;
68923;SDS011;55961;52.156;20.942;2023-05-07T13:15:58;2.85;;;0.70;;
68923;SDS011;55961;52.156;20.942;2023-05-07T13:18:25;2.95;;;0.73;;
68923;SDS011;55961;52.156;20.942;2023-05-07T13:20:52;4.00;;;0.90;;
68923;SDS011;55961;52.156;20.942;2023-05-07T13:23:19;4.35;;;0.93;;
68923;SDS011;55961;52.156;20.942;2023-05-07T13:25:45;3.08;;;1.13;;
68923;SDS011;55961;52.156;20.942;2023-05-07T13:28:11;2.40;;;0.90;;
68923;SDS011;55961;52.156;20.942;2023-05-07T13:30:37;4.32;;;1.20;;
68923;SDS011;55961;52.156;20.942;2023-05-07T13:33:03;2.97;;;1.20;;
68923;SDS011;55961;52.156;20.942;2023-05-07T13:35:30;3.15;;;1.20;;
68923;SDS011;55961;52.156;20.942;2023-05-07T13:37:56;5.65;;;1.33;;
68923;SDS011;55961;52.156;20.942;2023-05-07T13:40:22;2.88;;;1.10;;
68923;SDS011;55961;52.156;20.942;2023-05-07T13:42:48;2.77;;;0.87;;
68923;SDS011;55961;52.156;20.942;2023-05-07T13:45:17;4.75;;;1.17;;
68923;SDS011;55961;52.156;20.942;2023-05-07T13:47:43;4.03;;;0.90;;
68923;SDS011;55961;52.156;20.942;2023-05-07T13:50:10;5.15;;;1.10;;
68923;SDS011;55961;52.156;20.942;2023-05-07T13:52:42;4.57;;;1.23;;
68923;SDS011;55961;52.156;20.942;2023-05-07T13:55:09;4.23;;;1.10;;
68923;SDS011;55961;52.156;20.942;2023-05-07T13:57:36;3.00;;;1.02;;
68923;SDS011;55961;52.156;20.942;2023-05-07T14:00:03;4.35;;;1.05;;
68923;SDS011;55961;52.156;20.942;2023-05-07T14:02:30;2.78;;;1.00;;
68923;SDS011;55961;52.156;20.942;2023-05-07T14:04:57;3.50;;;0.90;;
68923;SDS011;55961;52.156;20.942;2023-05-07T14:07:22;3.33;;;1.00;;
68923;SDS011;55961;52.156;20.942;2023-05-07T14:09:49;3.08;;;1.10;;
68923;SDS011;55961;52.156;20.942;2023-05-07T14:12:14;3.17;;;1.30;;
68923;SDS011;55961;52.156;20.942;2023-05-07T14:14:41;3.60;;;1.00;;
68923;SDS011;55961;52.156;20.942;2023-05-07T14:17:06;3.90;;;1.10;;
68923;SDS011;55961;52.156;20.942;2023-05-07T14:19:33;3.88;;;1.20;;
68923;SDS011;55961;52.156;20.942;2023-05-07T14:21:59;4.20;;;1.00;;
68923;SDS011;55961;52.156;20.942;2023-05-07T14:24:25;3.88;;;1.00;;
68923;SDS011;55961;52.156;20.942;2023-05-07T14:26:51;2.38;;;0.82;;
68923;SDS011;55961;52.156;20.942;2023-05-07T14:29:17;3.43;;;1.10;;
68923;SDS011;55961;52.156;20.942;2023-05-07T14:31:44;3.03;;;1.02;;
68923;SDS011;55961;52.156;20.942;2023-05-07T14:34:10;3.05;;;1.17;;
68923;SDS011;55961;52.156;20.942;2023-05-07T14:36:36;3.08;;;0.90;;
68923;SDS011;55961;52.156;20.942;2023-05-07T14:39:03;3.20;;;1.43;;
68923;SDS011;55961;52.156;20.942;2023-05-07T14:41:29;4.65;;;1.10;;
68923;SDS011;55961;52.156;20.942;2023-05-07T14:43:56;3.28;;;1.10;;
68923;SDS011;55961;52.156;20.942;2023-05-07T14:46:24;3.85;;;1.15;;
68923;SDS011;55961;52.156;20.942;2023-05-07T14:48:51;2.95;;;1.10;;
68923;SDS011;55961;52.156;20.942;2023-05-07T14:51:17;4.17;;;1.40;;
68923;SDS011;55961;52.156;20.942;2023-05-07T14:53:44;5.03;;;1.70;;
68923;SDS011;55961;52.156;20.942;2023-05-07T14:56:10;4.68;;;1.80;;
68923;SDS011;55961;52.156;20.942;2023-05-07T14:58:36;3.53;;;1.20;;
68923;SDS011;55961;52.156;20.942;2023-05-07T15:01:02;2.97;;;1.00;;
68923;SDS011;55961;52.156;20.942;2023-05-07T15:03:28;3.00;;;1.20;;
68923;SDS011;55961;52.156;20.942;2023-05-07T15:05:54;3.85;;;1.00;;
68923;SDS011;55961;52.156;20.942;2023-05-07T15:08:21;5.10;;;1.00;;
68923;SDS011;55961;52.156;20.942;2023-05-07T15:10:47;3.80;;;0.93;;
68923;SDS011;55961;52.156;20.942;2023-05-07T15:13:13;3.05;;;1.10;;
68923;SDS011;55961;52.156;20.942;2023-05-07T15:15:39;4.37;;;1.30;;